createdAt,value
2016-03-29T00:00:35.614Z,5.54
2016-03-29T00:01:35.602Z,5.61
2016-03-29T00:02:48.370Z,5.58
2016-03-29T00:03:48.373Z,5.56
2016-03-29T00:05:01.314Z,5.59
2016-03-29T00:05:35.692Z,5.7
2016-03-29T00:06:35.725Z,5.67
2016-03-29T00:07:45.275Z,5.7
2016-03-29T00:08:45.292Z,5.73
2016-03-29T00:09:45.311Z,5.76
2016-03-29T00:11:47.942Z,5.77
2016-03-29T00:12:26.225Z,5.74
2016-03-29T00:13:00.553Z,5.79
2016-03-29T00:14:26.231Z,5.74
2016-03-29T00:15:00.419Z,5.8
2016-03-29T00:16:00.593Z,5.72
2016-03-29T00:17:00.610Z,5.69
2016-03-29T00:18:00.645Z,5.69
2016-03-29T00:19:01.273Z,5.69
2016-03-29T00:20:01.322Z,5.64
2016-03-29T00:21:00.668Z,5.59
2016-03-29T00:22:13.424Z,5.65
2016-03-29T00:23:01.315Z,5.61
2016-03-29T00:24:00.707Z,5.61
2016-03-29T00:25:13.385Z,5.59
2016-03-29T00:26:13.482Z,5.52
2016-03-29T00:27:13.531Z,5.58
2016-03-29T00:28:00.781Z,5.49
2016-03-29T00:29:00.800Z,5.51
2016-03-29T00:30:00.834Z,5.46
2016-03-29T00:31:00.836Z,5.43
2016-03-29T00:32:00.933Z,5.43
2016-03-29T00:33:00.888Z,5.43
2016-03-29T00:34:07.222Z,5.34
2016-03-29T00:35:00.878Z,5.31
2016-03-29T00:36:00.912Z,5.44
2016-03-29T00:37:00.947Z,5.36
2016-03-29T00:38:00.949Z,5.51
2016-03-29T00:39:00.952Z,5.55
2016-03-29T00:40:01.172Z,5.55
2016-03-29T00:41:01.426Z,5.59
2016-03-29T00:42:00.991Z,5.59
2016-03-29T00:43:13.761Z,5.64
2016-03-29T00:44:01.043Z,5.8
2016-03-29T00:45:01.046Z,5.76
2016-03-29T00:46:13.801Z,5.76
2016-03-29T00:47:01.098Z,5.81
2016-03-29T00:48:20.307Z,5.8
2016-03-29T00:49:01.119Z,5.83
2016-03-29T00:50:01.122Z,5.92
2016-03-29T00:51:01.249Z,5.81
2016-03-29T00:52:01.158Z,5.98
2016-03-29T00:53:07.445Z,5.94
2016-03-29T00:54:01.195Z,5.92
2016-03-29T00:55:01.229Z,6.09
2016-03-29T00:56:01.232Z,5.98
2016-03-29T00:57:01.235Z,6.01
2016-03-29T00:58:01.284Z,5.98
2016-03-29T00:59:01.302Z,5.91
2016-03-29T01:00:07.573Z,5.99
2016-03-29T01:01:01.307Z,5.95
2016-03-29T01:02:20.532Z,5.98
2016-03-29T01:03:01.345Z,5.91
2016-03-29T01:04:01.487Z,5.92
2016-03-29T01:05:01.350Z,5.88
2016-03-29T01:06:01.430Z,5.87
2016-03-29T01:07:07.701Z,5.9
2016-03-29T01:08:01.409Z,5.84
2016-03-29T01:09:01.459Z,5.91
2016-03-29T01:10:01.461Z,5.91
2016-03-29T01:11:01.464Z,5.91
2016-03-29T01:12:01.467Z,5.97
2016-03-29T01:13:01.501Z,6.05
2016-03-29T01:14:01.519Z,6.01
2016-03-29T01:15:01.553Z,6.16
2016-03-29T01:16:02.965Z,6.07
2016-03-29T01:17:01.574Z,6.15
2016-03-29T01:18:01.561Z,6.12
2016-03-29T01:19:01.643Z,6.29
2016-03-29T01:20:01.613Z,6.28
2016-03-29T01:21:01.741Z,6.28
2016-03-29T01:22:01.650Z,6.29
2016-03-29T01:23:01.654Z,6.34
2016-03-29T01:24:14.409Z,6.35
2016-03-29T01:25:01.721Z,6.35
2016-03-29T01:26:01.770Z,6.41
2016-03-29T01:27:01.726Z,6.43
2016-03-29T01:28:14.481Z,6.47
2016-03-29T01:29:01.747Z,6.56
2016-03-29T01:30:20.971Z,6.56
2016-03-29T01:31:01.800Z,6.57
2016-03-29T01:32:01.802Z,6.54
2016-03-29T01:33:01.820Z,6.6
2016-03-29T01:34:08.717Z,6.59
2016-03-29T01:35:01.842Z,6.59
2016-03-29T01:36:01.891Z,6.64
2016-03-29T01:37:14.630Z,6.6
2016-03-29T01:38:08.774Z,6.57
2016-03-29T01:39:01.914Z,6.62
2016-03-29T01:41:11.563Z,6.65
2016-03-29T01:42:11.582Z,6.67
2016-03-29T01:43:11.616Z,6.59
2016-03-29T01:44:11.633Z,6.59
2016-03-29T01:45:11.652Z,6.54
2016-03-29T01:46:24.389Z,6.43
2016-03-29T01:47:11.673Z,6.41
2016-03-29T01:48:24.426Z,6.34
2016-03-29T01:49:11.865Z,6.28
2016-03-29T01:50:11.713Z,6.2
2016-03-29T01:51:24.465Z,6.17
2016-03-29T01:52:24.484Z,6.06
2016-03-29T01:53:11.768Z,6.02
2016-03-29T01:54:11.770Z,5.98
2016-03-29T01:55:12.413Z,5.91
2016-03-29T01:56:11.884Z,5.73
2016-03-29T01:57:11.826Z,5.76
2016-03-29T01:58:11.859Z,5.67
2016-03-29T01:59:11.893Z,5.64
2016-03-29T02:00:11.895Z,5.56
2016-03-29T02:01:12.508Z,5.41
2016-03-29T02:02:24.714Z,5.49
2016-03-29T02:03:11.934Z,5.51
2016-03-29T02:04:11.953Z,5.43
2016-03-29T02:05:12.581Z,5.37
2016-03-29T02:06:11.975Z,5.29
2016-03-29T02:07:11.992Z,5.2
2016-03-29T02:08:12.027Z,5.22
2016-03-29T02:09:12.655Z,5.16
2016-03-29T02:10:12.048Z,5.22
2016-03-29T02:11:24.831Z,5.26
2016-03-29T02:12:24.833Z,5.28
2016-03-29T02:13:12.118Z,5.31
2016-03-29T02:14:12.105Z,5.37
2016-03-29T02:15:12.202Z,5.38
2016-03-29T02:16:12.142Z,5.4
2016-03-29T02:17:12.161Z,5.31
2016-03-29T02:18:12.194Z,5.28
2016-03-29T02:19:12.384Z,5.25
2016-03-29T02:20:18.496Z,5.2
2016-03-29T02:21:12.437Z,5.16
2016-03-29T02:22:12.235Z,5.18
2016-03-29T02:23:12.254Z,5.15
2016-03-29T02:24:12.272Z,5.13
2016-03-29T02:25:18.541Z,5.12
2016-03-29T02:26:12.465Z,5.12
2016-03-29T02:27:12.312Z,5.05
2016-03-29T02:28:12.346Z,5.04
2016-03-29T02:29:18.754Z,5.04
2016-03-29T02:30:12.382Z,5.02
2016-03-29T02:31:12.369Z,5
2016-03-29T02:32:18.747Z,4.98
2016-03-29T02:33:18.719Z,4.98
2016-03-29T02:34:12.425Z,4.95
2016-03-29T02:35:12.442Z,4.92
2016-03-29T02:36:12.461Z,4.98
2016-03-29T02:37:12.464Z,4.97
2016-03-29T02:38:12.482Z,4.95
2016-03-29T02:39:12.500Z,4.89
2016-03-29T02:40:12.519Z,4.86
2016-03-29T02:41:12.678Z,4.9
2016-03-29T02:42:18.821Z,4.94
2016-03-29T02:43:12.589Z,4.9
2016-03-29T02:44:12.561Z,4.95
2016-03-29T02:45:18.845Z,4.9
2016-03-29T02:46:13.238Z,4.87
2016-03-29T02:47:12.771Z,4.92
2016-03-29T02:48:14.072Z,4.83
2016-03-29T02:49:12.652Z,4.87
2016-03-29T02:50:12.671Z,4.83
2016-03-29T02:51:25.424Z,4.83
2016-03-29T02:52:12.708Z,4.9
2016-03-29T02:53:38.382Z,4.89
2016-03-29T02:54:18.993Z,4.87
2016-03-29T02:55:44.074Z,4.74
2016-03-29T02:56:12.827Z,4.76
2016-03-29T02:58:12.864Z,4.71
2016-03-29T02:59:12.804Z,4.78
2016-03-29T03:00:12.854Z,4.78
2016-03-29T03:01:25.591Z,4.76
2016-03-29T03:02:12.937Z,4.75
2016-03-29T03:03:12.878Z,4.76
2016-03-29T03:04:25.631Z,4.89
2016-03-29T03:05:14.305Z,4.89
2016-03-29T03:06:25.698Z,4.89
2016-03-29T03:07:12.951Z,4.98
2016-03-29T03:08:38.610Z,4.92
2016-03-29T03:09:22.487Z,5.08
2016-03-29T03:10:35.255Z,5.08
2016-03-29T03:11:28.711Z,5.16
2016-03-29T03:12:22.542Z,5.25
2016-03-29T03:13:22.544Z,5.26
2016-03-29T03:14:22.579Z,5.34
2016-03-29T03:15:22.566Z,5.43
2016-03-29T03:16:28.866Z,5.38
2016-03-29T03:17:22.774Z,5.46
2016-03-29T03:18:22.152Z,5.56
2016-03-29T03:19:22.764Z,5.56
2016-03-29T03:20:22.657Z,5.73
2016-03-29T03:21:22.707Z,5.83
2016-03-29T03:22:22.709Z,5.83
2016-03-29T03:23:22.697Z,5.87
2016-03-29T03:24:22.731Z,5.79
2016-03-29T03:25:22.749Z,5.95
2016-03-29T03:26:22.690Z,5.94
2016-03-29T03:27:22.785Z,5.97
2016-03-29T03:28:22.804Z,6.01
2016-03-29T03:29:24.228Z,5.98
2016-03-29T03:30:22.918Z,5.92
2016-03-29T03:31:22.937Z,5.94
2016-03-29T03:32:23.003Z,5.95
2016-03-29T03:33:22.958Z,5.87
2016-03-29T03:34:23.289Z,5.84
2016-03-29T03:35:35.620Z,5.8
2016-03-29T03:36:23.091Z,5.77
2016-03-29T03:37:42.126Z,5.87
2016-03-29T03:38:29.862Z,5.91
2016-03-29T03:39:48.709Z,6.05
2016-03-29T03:40:23.133Z,5.98
2016-03-29T03:41:23.042Z,6.06
2016-03-29T03:42:35.748Z,6.1
2016-03-29T03:43:23.016Z,6.07
2016-03-29T03:44:23.035Z,6.12
2016-03-29T03:45:35.802Z,6.09
2016-03-29T03:46:23.103Z,6.09
2016-03-29T03:47:42.308Z,6.12
2016-03-29T03:48:35.842Z,6.16
2016-03-29T03:49:48.783Z,6.19
2016-03-29T03:50:23.144Z,6.25
2016-03-29T03:51:23.757Z,6.2
2016-03-29T03:52:35.899Z,6.29
2016-03-29T03:53:23.185Z,6.41
2016-03-29T03:54:35.937Z,6.31
2016-03-29T03:55:35.939Z,6.34
2016-03-29T03:56:42.426Z,6.34
2016-03-29T03:57:23.085Z,6.35
2016-03-29T03:58:23.275Z,6.43
2016-03-29T03:59:23.279Z,6.36
2016-03-29T04:00:23.359Z,6.44
2016-03-29T04:01:23.315Z,6.38
2016-03-29T04:02:23.583Z,6.43
2016-03-29T04:03:23.351Z,6.41
2016-03-29T04:04:23.370Z,6.34
2016-03-29T04:05:23.981Z,6.34
2016-03-29T04:06:23.500Z,6.26
2016-03-29T04:07:23.424Z,6.32
2016-03-29T04:08:29.896Z,6.31
2016-03-29T04:09:29.742Z,6.39
2016-03-29T04:10:23.448Z,6.41
2016-03-29T04:11:36.217Z,6.44
2016-03-29T04:12:29.750Z,6.56
2016-03-29T04:13:23.503Z,6.49
2016-03-29T04:14:36.037Z,6.57
2016-03-29T04:15:36.368Z,6.59
2016-03-29T04:16:23.542Z,6.59
2016-03-29T04:17:42.779Z,6.59
2016-03-29T04:18:36.314Z,6.57
2016-03-29T04:19:23.629Z,6.62
2016-03-29T04:20:23.600Z,6.6
2016-03-29T04:22:01.197Z,6.62
2016-03-29T04:22:23.637Z,6.65
2016-03-29T04:23:23.655Z,6.59
2016-03-29T04:24:23.673Z,6.6
2016-03-29T04:25:23.691Z,6.68
2016-03-29T04:26:36.460Z,6.65
2016-03-29T04:27:23.729Z,6.74
2016-03-29T04:28:23.779Z,6.7
2016-03-29T04:29:30.140Z,6.74
2016-03-29T04:30:23.877Z,6.65
2016-03-29T04:31:23.802Z,6.7
2016-03-29T04:32:23.882Z,6.74
2016-03-29T04:34:33.685Z,6.72
2016-03-29T04:35:33.687Z,6.67
2016-03-29T04:36:33.721Z,6.71
2016-03-29T04:37:40.068Z,6.74
2016-03-29T04:38:33.758Z,6.7
2016-03-29T04:39:33.776Z,6.71
2016-03-29T04:40:33.779Z,6.7
2016-03-29T04:41:33.798Z,6.75
2016-03-29T04:42:33.800Z,6.64
2016-03-29T04:43:40.147Z,6.62
2016-03-29T04:44:40.117Z,6.54
2016-03-29T04:45:33.855Z,6.59
2016-03-29T04:46:53.077Z,6.56
2016-03-29T04:47:33.970Z,6.53
2016-03-29T04:48:59.582Z,6.52
2016-03-29T04:49:46.631Z,6.5
2016-03-29T04:51:05.244Z,6.47
2016-03-29T04:51:53.168Z,6.53
2016-03-29T04:52:33.983Z,6.49
2016-03-29T04:53:59.674Z,6.53
2016-03-29T04:54:43.458Z,6.56
2016-03-29T04:55:43.413Z,6.62
2016-03-29T04:56:44.291Z,6.6
2016-03-29T04:57:43.450Z,6.6
2016-03-29T04:58:43.469Z,6.57
2016-03-29T04:59:56.237Z,6.62
2016-03-29T05:00:44.099Z,6.62
2016-03-29T05:01:44.132Z,6.65
2016-03-29T05:02:49.995Z,6.7
2016-03-29T05:03:56.310Z,6.62
2016-03-29T05:04:43.578Z,6.6
2016-03-29T05:05:43.580Z,6.62
2016-03-29T05:06:56.334Z,6.6
2016-03-29T05:08:09.323Z,6.65
2016-03-29T05:08:43.698Z,6.62
2016-03-29T05:09:43.670Z,6.6
2016-03-29T05:10:43.673Z,6.57
2016-03-29T05:11:43.690Z,6.6
2016-03-29T05:12:43.724Z,6.57
2016-03-29T05:13:43.728Z,6.65
2016-03-29T05:14:43.745Z,6.65
2016-03-29T05:15:43.825Z,6.77
2016-03-29T05:16:43.782Z,6.7
2016-03-29T05:17:43.831Z,6.7
2016-03-29T05:18:43.803Z,6.8
2016-03-29T05:19:43.883Z,6.78
2016-03-29T05:20:43.825Z,6.8
2016-03-29T05:21:46.874Z,6.75
2016-03-29T05:22:43.877Z,6.92
2016-03-29T05:23:56.629Z,6.89
2016-03-29T05:24:44.179Z,6.87
2016-03-29T05:26:03.119Z,6.87
2016-03-29T05:26:45.371Z,6.87
2016-03-29T05:28:09.643Z,6.9
2016-03-29T05:28:59.783Z,6.92
2016-03-29T05:29:53.614Z,6.87
2016-03-29T05:31:06.274Z,6.92
2016-03-29T05:31:53.666Z,6.92
2016-03-29T05:33:50.546Z,7.01
2016-03-29T05:34:16.002Z,7.01
2016-03-29T05:35:15.942Z,6.95
2016-03-29T05:36:15.962Z,7.05
2016-03-29T05:37:22.229Z,7.04
2016-03-29T05:38:15.997Z,7.04
2016-03-29T05:39:16.000Z,7.01
2016-03-29T05:40:22.300Z,7.04
2016-03-29T05:41:22.645Z,6.97
2016-03-29T05:42:16.086Z,7.03
2016-03-29T05:43:16.136Z,7.04
2016-03-29T05:44:16.091Z,7.08
2016-03-29T05:45:16.110Z,7.07
2016-03-29T05:46:16.128Z,7.05
2016-03-29T05:47:16.147Z,7.03
2016-03-29T05:48:22.430Z,7.08
2016-03-29T05:49:16.183Z,7.14
2016-03-29T05:50:16.185Z,7.22
2016-03-29T05:51:16.220Z,7.23
2016-03-29T05:52:16.238Z,7.21
2016-03-29T05:53:16.241Z,7.23
2016-03-29T05:54:16.275Z,7.28
2016-03-29T05:55:16.278Z,7.23
2016-03-29T05:56:16.311Z,7.26
2016-03-29T05:57:16.313Z,7.28
2016-03-29T05:58:16.395Z,7.29
2016-03-29T05:59:16.335Z,7.28
2016-03-29T06:00:16.353Z,7.26
2016-03-29T06:01:16.371Z,7.29
2016-03-29T06:02:16.390Z,7.26
2016-03-29T06:03:16.409Z,7.25
2016-03-29T06:04:16.412Z,7.23
2016-03-29T06:05:16.445Z,7.23
2016-03-29T06:06:16.463Z,7.29
2016-03-29T06:07:16.623Z,7.23
2016-03-29T06:08:16.500Z,7.26
2016-03-29T06:09:16.534Z,7.19
2016-03-29T06:10:16.540Z,7.28
2016-03-29T06:11:16.575Z,7.36
2016-03-29T06:12:16.577Z,7.72
2016-03-29T06:13:16.580Z,8.34
2016-03-29T06:14:16.614Z,8.74
2016-03-29T06:15:16.601Z,9.36
2016-03-29T06:16:16.619Z,9.97
2016-03-29T06:17:16.668Z,10.62
2016-03-29T06:18:29.407Z,11.12
2016-03-29T06:19:17.315Z,11.1
2016-03-29T06:20:16.693Z,11.12
2016-03-29T06:21:18.335Z,11.33
2016-03-29T06:22:16.838Z,11.12
2016-03-29T06:23:29.637Z,10.79
2016-03-29T06:24:23.140Z,10.36
2016-03-29T06:25:36.112Z,9.85
2016-03-29T06:26:23.131Z,9.58
2016-03-29T06:27:42.367Z,9.24
2016-03-29T06:28:30.229Z,9.13
2016-03-29T06:29:48.231Z,8.87
2016-03-29T06:30:36.110Z,8.78
2016-03-29T06:31:16.925Z,8.75
2016-03-29T06:33:14.508Z,8.57
2016-03-29T06:33:33.321Z,8.46
2016-03-29T06:34:33.386Z,8.45
2016-03-29T06:35:46.092Z,8.16
2016-03-29T06:36:46.110Z,8.05
2016-03-29T06:37:59.083Z,8.08
2016-03-29T06:39:08.694Z,7.96
2016-03-29T06:39:55.728Z,7.93
2016-03-29T06:41:14.311Z,7.98
2016-03-29T06:41:46.436Z,8.08
2016-03-29T06:43:55.707Z,8.11
2016-03-29T06:44:55.710Z,8.18
2016-03-29T06:45:55.743Z,8.14
2016-03-29T06:46:55.763Z,8.2
2016-03-29T06:48:08.515Z,8.21
2016-03-29T06:48:56.393Z,8.2
2016-03-29T06:50:15.054Z,8.16
2016-03-29T06:50:58.960Z,8.06
2016-03-29T06:52:24.654Z,8.08
2016-03-29T06:53:08.513Z,7.98
2016-03-29T06:54:08.547Z,7.95
2016-03-29T06:55:21.260Z,7.95
2016-03-29T06:56:09.416Z,8.06
2016-03-29T06:57:34.216Z,7.99
2016-03-29T06:58:21.296Z,8.17
2016-03-29T06:59:40.473Z,8.21
2016-03-29T07:00:27.751Z,8.32
2016-03-29T07:03:08.619Z,8.49
2016-03-29T07:03:42.959Z,8.69
2016-03-29T07:05:58.255Z,8.9
2016-03-29T07:06:58.177Z,8.84
2016-03-29T07:09:38.883Z,8.53
2016-03-29T07:10:13.211Z,8.49
2016-03-29T07:11:45.277Z,8.39
2016-03-29T07:12:20.216Z,8.35
2016-03-29T07:14:32.439Z,8.38
2016-03-29T07:15:32.441Z,8.31
2016-03-29T07:17:35.087Z,8.11
2016-03-29T07:17:47.634Z,8.11
2016-03-29T07:18:47.746Z,8.14
2016-03-29T07:20:00.436Z,8.18
2016-03-29T07:20:47.704Z,8.23
2016-03-29T07:22:06.926Z,8.41
2016-03-29T07:22:47.740Z,8.39
2016-03-29T07:23:47.758Z,8.49
2016-03-29T07:24:48.371Z,8.72
2016-03-29T07:25:48.406Z,9.18
2016-03-29T07:26:54.455Z,9.48
2016-03-29T07:27:47.848Z,9.8
2016-03-29T07:28:48.085Z,9.95
2016-03-29T07:29:54.150Z,10.07
2016-03-29T07:30:55.575Z,10.07
2016-03-29T07:31:48.499Z,10.13
2016-03-29T07:32:47.908Z,10.28
2016-03-29T07:34:07.177Z,10.79
2016-03-29T07:34:47.991Z,10.86
2016-03-29T07:35:48.041Z,10.94
2016-03-29T07:36:48.013Z,10.9
2016-03-29T07:37:48.047Z,10.92
2016-03-29T07:39:00.800Z,10.75
2016-03-29T07:39:48.068Z,10.79
2016-03-29T07:40:48.289Z,10.71
2016-03-29T07:41:48.308Z,10.65
2016-03-29T07:42:48.138Z,10.79
2016-03-29T07:43:48.172Z,10.94
2016-03-29T07:44:48.237Z,11.15
2016-03-29T07:45:48.193Z,11.53
2016-03-29T07:46:48.274Z,11.7
2016-03-29T07:47:48.230Z,11.85
2016-03-29T07:48:48.295Z,12.08
2016-03-29T07:49:48.283Z,12.37
2016-03-29T07:50:48.285Z,12.75
2016-03-29T07:51:48.304Z,12.75
2016-03-29T07:52:48.321Z,12.63
2016-03-29T07:53:48.325Z,12.53
2016-03-29T07:54:48.374Z,12.3
2016-03-29T07:55:48.501Z,12.21
2016-03-29T07:56:54.802Z,12.07
2016-03-29T07:57:48.445Z,11.8
2016-03-29T07:58:48.448Z,11.76
2016-03-29T07:59:48.466Z,11.53
2016-03-29T08:00:48.500Z,11.49
2016-03-29T08:01:48.534Z,11.58
2016-03-29T08:02:49.943Z,11.65
2016-03-29T08:03:48.773Z,11.52
2016-03-29T08:04:48.589Z,11.73
2016-03-29T08:06:01.357Z,11.83
2016-03-29T08:06:48.610Z,11.89
2016-03-29T08:07:48.706Z,11.91
2016-03-29T08:08:49.272Z,11.86
2016-03-29T08:09:48.697Z,11.7
2016-03-29T08:10:48.714Z,11.83
2016-03-29T08:12:01.623Z,11.93
2016-03-29T08:12:48.797Z,12.05
2016-03-29T08:13:48.769Z,12.21
2016-03-29T08:15:01.631Z,12.29
2016-03-29T08:15:48.806Z,12.28
2016-03-29T08:16:48.856Z,12.33
2016-03-29T08:18:01.608Z,12.1
2016-03-29T08:18:48.877Z,12.3
2016-03-29T08:20:08.098Z,12.15
2016-03-29T08:20:48.897Z,11.96
2016-03-29T08:21:49.025Z,11.71
2016-03-29T08:22:48.982Z,11.51
2016-03-29T08:23:49.047Z,11.31
2016-03-29T08:25:01.737Z,11.25
2016-03-29T08:25:49.693Z,11.08
2016-03-29T08:27:14.804Z,10.76
2016-03-29T08:27:49.088Z,10.79
2016-03-29T08:28:49.107Z,10.53
2016-03-29T08:29:49.313Z,10.53
2016-03-29T08:30:49.143Z,10.48
2016-03-29T08:31:49.162Z,10.48
2016-03-29T08:32:49.179Z,10.55
2016-03-29T08:33:49.214Z,10.59
2016-03-29T08:34:49.248Z,10.67
2016-03-29T08:35:49.251Z,10.75
2016-03-29T08:36:49.488Z,10.75
2016-03-29T08:37:49.303Z,10.79
2016-03-29T08:38:55.587Z,10.89
2016-03-29T08:40:02.073Z,11
2016-03-29T08:40:49.342Z,11.05
2016-03-29T08:42:02.126Z,10.94
2016-03-29T08:42:49.425Z,10.94
2016-03-29T08:44:15.084Z,10.95
2016-03-29T08:44:49.446Z,11.02
2016-03-29T08:45:49.465Z,11.07
2016-03-29T08:46:49.483Z,11.12
2016-03-29T08:47:49.658Z,11.34
2016-03-29T08:48:49.505Z,11.35
2016-03-29T08:49:49.522Z,11.19
2016-03-29T08:50:49.557Z,11.12
2016-03-29T08:51:49.559Z,10.94
2016-03-29T08:52:49.594Z,10.87
2016-03-29T08:53:49.643Z,10.87
2016-03-29T08:54:49.661Z,10.86
2016-03-29T08:55:49.664Z,11.01
2016-03-29T08:56:49.713Z,11.13
2016-03-29T08:57:49.716Z,11.3
2016-03-29T08:58:49.750Z,11.51
2016-03-29T09:00:02.487Z,11.49
2016-03-29T09:00:50.396Z,11.6
2016-03-29T09:01:49.820Z,11.59
2016-03-29T09:02:50.417Z,11.45
2016-03-29T09:03:49.857Z,11.26
2016-03-29T09:05:02.610Z,11.22
2016-03-29T09:05:49.879Z,10.97
2016-03-29T09:06:49.913Z,11.02
2016-03-29T09:07:49.900Z,11.04
2016-03-29T09:09:02.684Z,11.02
2016-03-29T09:09:50.030Z,11.08
2016-03-29T09:10:49.971Z,11.08
2016-03-29T09:11:50.004Z,11.15
2016-03-29T09:12:50.038Z,11.15
2016-03-29T09:13:50.665Z,11.1
2016-03-29T09:14:50.075Z,11.15
2016-03-29T09:15:50.093Z,11.08
2016-03-29T09:16:50.096Z,10.9
2016-03-29T09:17:50.131Z,10.86
2016-03-29T09:18:50.133Z,11.12
2016-03-29T09:19:50.151Z,11.35
2016-03-29T09:20:50.184Z,11.58
2016-03-29T09:21:50.423Z,11.71
2016-03-29T09:22:50.300Z,11.71
2016-03-29T09:23:56.506Z,11.83
2016-03-29T09:24:50.337Z,11.8
2016-03-29T09:25:50.292Z,11.77
2016-03-29T09:26:50.311Z,11.8
2016-03-29T09:27:50.344Z,11.86
2016-03-29T09:28:50.535Z,11.99
2016-03-29T09:29:50.380Z,11.85
2016-03-29T09:30:50.430Z,11.86
2016-03-29T09:31:50.621Z,11.85
2016-03-29T09:32:50.452Z,11.95
2016-03-29T09:33:50.455Z,11.89
2016-03-29T09:34:50.473Z,11.88
2016-03-29T09:35:50.507Z,11.93
2016-03-29T09:36:50.541Z,11.93
2016-03-29T09:37:50.559Z,11.99
2016-03-29T09:38:50.405Z,12.03
2016-03-29T09:39:50.596Z,11.97
2016-03-29T09:40:50.613Z,11.88
2016-03-29T09:41:50.648Z,11.91
2016-03-29T09:42:56.931Z,11.81
2016-03-29T09:43:50.668Z,11.83
2016-03-29T09:44:50.703Z,11.99
2016-03-29T09:45:50.710Z,11.95
2016-03-29T09:46:50.729Z,11.74
2016-03-29T09:47:57.044Z,11.7
2016-03-29T09:48:50.812Z,11.48
2016-03-29T09:49:51.424Z,11.33
2016-03-29T09:50:50.833Z,11.2
2016-03-29T09:52:03.570Z,11.2
2016-03-29T09:52:50.869Z,11.16
2016-03-29T09:53:50.904Z,11.19
2016-03-29T09:54:51.641Z,11.04
2016-03-29T09:55:50.941Z,10.89
2016-03-29T09:57:03.694Z,10.76
2016-03-29T09:57:50.961Z,10.76
2016-03-29T09:58:50.980Z,10.57
2016-03-29T10:00:03.763Z,10.42
2016-03-29T10:01:03.750Z,10.42
2016-03-29T10:02:03.831Z,10.38
2016-03-29T10:02:51.052Z,10.33
2016-03-29T10:03:51.087Z,10.27
2016-03-29T10:04:51.104Z,10.41
2016-03-29T10:05:51.139Z,10.45
2016-03-29T10:06:51.157Z,10.49
2016-03-29T10:07:51.176Z,10.49
2016-03-29T10:08:51.194Z,10.55
2016-03-29T10:09:51.228Z,10.57
2016-03-29T10:10:51.231Z,10.76
2016-03-29T10:11:51.264Z,10.72
2016-03-29T10:12:50.737Z,10.94
2016-03-29T10:13:51.301Z,10.97
2016-03-29T10:14:51.382Z,10.95
2016-03-29T10:15:51.323Z,10.72
2016-03-29T10:16:51.356Z,10.79
2016-03-29T10:17:51.375Z,10.69
2016-03-29T10:18:51.393Z,10.46
2016-03-29T10:19:51.395Z,10.41
2016-03-29T10:20:51.429Z,10.34
2016-03-29T10:21:51.478Z,10.24
2016-03-29T10:22:51.497Z,10.2
2016-03-29T10:23:57.766Z,10.12
2016-03-29T10:24:51.519Z,10.28
2016-03-29T10:25:51.631Z,10.18
2016-03-29T10:26:51.555Z,10.2
2016-03-29T10:27:51.573Z,10.05
2016-03-29T10:28:57.872Z,10.06
2016-03-29T10:29:51.625Z,10.09
2016-03-29T10:30:51.643Z,10.2
2016-03-29T10:31:51.646Z,10.05
2016-03-29T10:32:51.696Z,9.99
2016-03-29T10:33:51.713Z,9.82
2016-03-29T10:34:51.716Z,9.76
2016-03-29T10:35:51.751Z,9.74
2016-03-29T10:36:51.846Z,9.8
2016-03-29T10:37:51.787Z,9.7
2016-03-29T10:38:51.884Z,9.77
2016-03-29T10:39:51.824Z,9.91
2016-03-29T10:40:51.968Z,10.07
2016-03-29T10:41:51.860Z,10.18
2016-03-29T10:42:51.957Z,10.49
2016-03-29T10:43:51.912Z,10.69
2016-03-29T10:44:51.931Z,11.04
2016-03-29T10:45:51.934Z,11.3
2016-03-29T10:46:51.952Z,11.52
2016-03-29T10:47:53.392Z,11.76
2016-03-29T10:49:04.723Z,12.17
2016-03-29T10:50:04.803Z,12.33
2016-03-29T10:50:52.025Z,12.48
2016-03-29T10:51:52.059Z,12.73
2016-03-29T10:52:52.094Z,12.95
2016-03-29T10:53:52.142Z,13.02
2016-03-29T10:54:52.131Z,12.93
2016-03-29T10:55:52.164Z,13.08
2016-03-29T10:56:52.167Z,13.2
2016-03-29T10:57:52.919Z,13.3
2016-03-29T10:58:52.829Z,13.28
2016-03-29T10:59:52.253Z,13.37
2016-03-29T11:00:52.397Z,13.27
2016-03-29T11:01:52.383Z,13.4
2016-03-29T11:02:52.386Z,13.67
2016-03-29T11:03:52.405Z,13.79
2016-03-29T11:04:52.391Z,13.89
2016-03-29T11:05:52.410Z,13.85
2016-03-29T11:06:52.396Z,13.95
2016-03-29T11:07:52.602Z,13.95
2016-03-29T11:08:52.418Z,13.98
2016-03-29T11:09:52.468Z,13.93
2016-03-29T11:10:52.470Z,13.85
2016-03-29T11:12:05.410Z,13.7
2016-03-29T11:12:52.507Z,13.64
2016-03-29T11:13:52.540Z,13.55
2016-03-29T11:14:52.574Z,13.43
2016-03-29T11:15:52.795Z,13.54
2016-03-29T11:16:52.626Z,13.55
2016-03-29T11:17:52.942Z,13.43
2016-03-29T11:18:58.898Z,13.26
2016-03-29T11:19:52.698Z,13.08
2016-03-29T11:21:05.403Z,12.75
2016-03-29T11:21:52.703Z,12.37
2016-03-29T11:23:11.940Z,11.95
2016-03-29T11:23:52.786Z,11.8
2016-03-29T11:25:24.101Z,11.49
2016-03-29T11:25:52.808Z,11.52
2016-03-29T11:27:53.048Z,11.67
2016-03-29T11:28:52.894Z,11.76
2016-03-29T11:29:52.897Z,11.89
2016-03-29T11:30:59.180Z,12.03
2016-03-29T11:31:52.933Z,12.23
2016-03-29T11:32:52.967Z,12.44
2016-03-29T11:33:52.969Z,12.5
2016-03-29T11:34:54.425Z,12.53
2016-03-29T11:35:53.021Z,12.48
2016-03-29T11:37:12.259Z,12.51
2016-03-29T11:37:53.074Z,12.4
2016-03-29T11:39:18.764Z,12.26
2016-03-29T11:39:53.111Z,12.07
2016-03-29T11:41:24.441Z,11.85
2016-03-29T11:42:05.929Z,11.73
2016-03-29T11:42:53.181Z,11.67
2016-03-29T11:44:12.246Z,11.45
2016-03-29T11:44:53.217Z,11.3
2016-03-29T11:45:53.236Z,11.3
2016-03-29T11:47:06.004Z,11.45
2016-03-29T11:47:53.287Z,11.73
2016-03-29T11:49:12.556Z,12.2
2016-03-29T11:49:53.309Z,12.4
2016-03-29T11:51:19.125Z,12.88
2016-03-29T11:51:54.048Z,13.21
2016-03-29T11:53:24.692Z,13.57
2016-03-29T11:54:03.039Z,13.65
2016-03-29T11:55:28.761Z,13.7
2016-03-29T11:56:03.076Z,13.85
2016-03-29T11:58:18.300Z,14.05
2016-03-29T11:59:18.536Z,14.19
2016-03-29T12:00:31.164Z,14.34
2016-03-29T12:01:31.230Z,14.36
2016-03-29T12:02:18.514Z,14.38
2016-03-29T12:03:18.453Z,14.4
2016-03-29T12:04:19.175Z,14.37
2016-03-29T12:05:18.521Z,14.23
2016-03-29T12:06:31.258Z,14.12
2016-03-29T12:07:18.524Z,13.98
2016-03-29T12:08:44.215Z,13.85
2016-03-29T12:09:19.154Z,13.7
2016-03-29T12:10:49.863Z,13.68
2016-03-29T12:11:18.613Z,13.62
2016-03-29T12:12:18.678Z,13.7
2016-03-29T12:13:31.368Z,13.5
2016-03-29T12:14:18.823Z,13.33
2016-03-29T12:15:37.904Z,13.37
2016-03-29T12:16:18.737Z,13.37
2016-03-29T12:17:18.723Z,13.4
2016-03-29T12:18:18.756Z,13.26
2016-03-29T12:19:31.494Z,13.24
2016-03-29T12:20:18.808Z,13.11
2016-03-29T12:21:18.811Z,13.08
2016-03-29T12:22:18.845Z,13.06
2016-03-29T12:23:18.864Z,12.98
2016-03-29T12:24:18.914Z,12.83
2016-03-29T12:25:19.026Z,12.87
2016-03-29T12:26:18.934Z,12.83
2016-03-29T12:27:18.984Z,12.75
2016-03-29T12:28:18.956Z,12.75
2016-03-29T12:29:18.989Z,12.8
2016-03-29T12:30:31.742Z,12.84
2016-03-29T12:31:31.839Z,12.86
2016-03-29T12:32:19.060Z,12.83
2016-03-29T12:33:19.110Z,12.91
2016-03-29T12:34:19.097Z,12.86
2016-03-29T12:35:19.130Z,12.99
2016-03-29T12:36:31.899Z,12.91
2016-03-29T12:37:19.182Z,12.9
2016-03-29T12:38:19.232Z,12.9
2016-03-29T12:39:19.235Z,12.93
2016-03-29T12:40:19.268Z,13.01
2016-03-29T12:41:19.271Z,13.12
2016-03-29T12:42:19.399Z,13.3
2016-03-29T12:43:32.059Z,13.42
2016-03-29T12:44:19.312Z,13.54
2016-03-29T12:45:38.580Z,13.49
2016-03-29T12:46:19.379Z,13.6
2016-03-29T12:47:45.085Z,13.82
2016-03-29T12:48:19.432Z,13.85
2016-03-29T12:50:19.468Z,14.03
2016-03-29T12:51:20.143Z,14.19
2016-03-29T12:52:25.911Z,14.37
2016-03-29T12:53:19.632Z,14.28
2016-03-29T12:54:19.556Z,14.25
2016-03-29T12:55:19.591Z,14.33
2016-03-29T12:56:19.609Z,14.2
2016-03-29T12:57:32.392Z,14.22
2016-03-29T12:58:19.677Z,13.86
2016-03-29T12:59:19.664Z,13.76
2016-03-29T13:00:19.854Z,13.79
2016-03-29T13:01:19.732Z,13.62
2016-03-29T13:02:19.765Z,13.43
2016-03-29T13:03:19.768Z,13.37
2016-03-29T13:04:19.943Z,13.19
2016-03-29T13:05:26.086Z,13.2
2016-03-29T13:06:26.088Z,13.06
2016-03-29T13:07:19.873Z,13.08
2016-03-29T13:08:19.907Z,13.2
2016-03-29T13:09:19.910Z,13.05
2016-03-29T13:10:19.928Z,12.88
2016-03-29T13:11:32.680Z,12.93
2016-03-29T13:12:19.965Z,12.87
2016-03-29T13:13:19.983Z,12.72
2016-03-29T13:14:19.985Z,12.72
2016-03-29T13:15:20.191Z,12.5
2016-03-29T13:16:26.319Z,12.35
2016-03-29T13:17:26.337Z,12.2
2016-03-29T13:18:20.090Z,12.03
2016-03-29T13:19:20.109Z,12
2016-03-29T13:20:20.126Z,11.76
2016-03-29T13:21:20.192Z,11.65
2016-03-29T13:22:26.491Z,11.43
2016-03-29T13:23:20.212Z,11.04
2016-03-29T13:24:20.247Z,10.75
2016-03-29T13:25:20.250Z,10.62
2016-03-29T13:26:20.299Z,10.42